createdAt,value
2019-02-10T00:00:46.006Z,74.65
2019-02-10T00:03:14.342Z,74.76
2019-02-10T00:05:42.624Z,74.90
2019-02-10T00:08:10.934Z,75.14
2019-02-10T00:10:39.557Z,75.11
2019-02-10T00:13:24.889Z,75.22
2019-02-10T00:15:53.528Z,75.28
2019-02-10T00:18:22.210Z,75.41
2019-02-10T00:20:50.560Z,75.77
2019-02-10T00:23:18.858Z,75.68
2019-02-10T00:25:47.544Z,75.54
2019-02-10T00:28:15.861Z,75.63
2019-02-10T00:30:44.501Z,75.68
2019-02-10T00:33:12.799Z,75.76
2019-02-10T00:35:41.357Z,75.72
2019-02-10T00:38:09.671Z,75.80
2019-02-10T00:40:37.954Z,75.78
2019-02-10T00:43:06.256Z,75.88
2019-02-10T00:45:35.205Z,75.89
2019-02-10T00:48:03.497Z,75.89
2019-02-10T00:50:31.800Z,75.98
2019-02-10T00:53:00.096Z,76.07
2019-02-10T00:55:28.404Z,76.11
2019-02-10T00:57:56.968Z,76.18
2019-02-10T01:00:25.369Z,76.22
2019-02-10T01:02:53.664Z,76.12
2019-02-10T01:05:21.966Z,76.19
2019-02-10T01:07:50.345Z,76.19
2019-02-10T01:10:20.094Z,76.18
2019-02-10T01:12:48.394Z,76.26
2019-02-10T01:15:16.886Z,76.25
2019-02-10T01:17:45.171Z,76.21
2019-02-10T01:20:13.476Z,76.31
2019-02-10T01:22:41.766Z,76.40
2019-02-10T01:25:10.109Z,76.54
2019-02-10T01:27:38.739Z,76.67
2019-02-10T01:30:13.320Z,76.55
2019-02-10T01:32:41.946Z,76.73
2019-02-10T01:35:10.314Z,76.84
2019-02-10T01:37:38.917Z,77.02
2019-02-10T01:40:09.244Z,76.96
2019-02-10T01:42:37.820Z,76.79
2019-02-10T01:45:08.962Z,76.81
2019-02-10T01:47:38.189Z,76.74
2019-02-10T01:50:09.119Z,76.77
2019-02-10T01:52:37.419Z,76.75
2019-02-10T01:55:13.605Z,76.69
2019-02-10T01:57:42.185Z,76.72
2019-02-10T02:00:16.364Z,76.84
2019-02-10T02:02:44.749Z,76.89
2019-02-10T02:05:13.045Z,76.98
2019-02-10T02:07:41.347Z,77.07
2019-02-10T02:10:12.437Z,77.12
2019-02-10T02:12:40.997Z,77.12
2019-02-10T02:15:12.313Z,77.32
2019-02-10T02:17:40.665Z,77.37
2019-02-10T02:20:10.516Z,77.75
2019-02-10T02:22:39.220Z,78.01
2019-02-10T02:25:09.730Z,78.69
2019-02-10T02:27:38.029Z,79.15
2019-02-10T02:30:09.784Z,79.56
2019-02-10T02:32:38.081Z,79.79
2019-02-10T02:35:06.458Z,80.84
2019-02-10T02:37:34.756Z,81.32
2019-02-10T02:40:03.621Z,81.64
2019-02-10T02:42:31.904Z,82.25
2019-02-10T02:45:00.417Z,82.63
2019-02-10T02:47:28.661Z,83.14
2019-02-10T02:49:57.331Z,83.55
2019-02-10T02:52:26.060Z,84.17
2019-02-10T02:54:54.373Z,84.53
2019-02-10T02:57:22.658Z,84.88
2019-02-10T02:59:50.954Z,85.27
2019-02-10T03:02:19.639Z,85.51
2019-02-10T03:04:48.035Z,85.81
2019-02-10T03:07:18.249Z,85.92
2019-02-10T03:09:46.781Z,85.99
2019-02-10T03:12:15.095Z,85.79
2019-02-10T03:14:43.373Z,86.21
2019-02-10T03:17:11.676Z,86.59
2019-02-10T03:19:39.959Z,87.00
2019-02-10T03:22:08.287Z,87.20
2019-02-10T03:24:36.575Z,87.21
2019-02-10T03:27:05.154Z,87.63
2019-02-10T03:29:33.457Z,88.09
2019-02-10T03:32:01.752Z,88.34
2019-02-10T03:34:30.397Z,88.52
2019-02-10T03:36:58.970Z,88.95
2019-02-10T03:39:27.290Z,89.01
2019-02-10T03:41:55.620Z,89.17
2019-02-10T03:44:24.212Z,89.35
2019-02-10T03:46:52.501Z,89.39
2019-02-10T03:49:20.807Z,89.43
2019-02-10T03:51:49.110Z,89.50
2019-02-10T03:54:17.423Z,89.57
2019-02-10T03:56:45.790Z,89.78
2019-02-10T03:59:14.162Z,89.95
2019-02-10T04:01:42.472Z,90.08
2019-02-10T04:04:10.772Z,90.14
2019-02-10T04:06:39.078Z,90.21
2019-02-10T04:09:07.356Z,90.30
2019-02-10T04:11:35.637Z,90.38
2019-02-10T04:14:04.039Z,90.50
2019-02-10T04:16:32.328Z,90.60
2019-02-10T04:19:00.668Z,90.73
2019-02-10T04:21:28.951Z,90.73
2019-02-10T04:23:57.566Z,90.71
2019-02-10T04:26:25.855Z,90.81
2019-02-10T04:28:54.185Z,91.01
2019-02-10T04:31:22.495Z,91.13
2019-02-10T04:33:51.264Z,91.12
2019-02-10T04:36:19.556Z,91.27
2019-02-10T04:38:47.849Z,91.41
2019-02-10T04:41:16.149Z,91.47
2019-02-10T04:43:44.450Z,91.61
2019-02-10T04:46:12.737Z,91.71
2019-02-10T04:48:41.342Z,91.85
2019-02-10T04:51:09.636Z,91.86
2019-02-10T04:53:37.948Z,91.96
2019-02-10T04:56:12.322Z,92.07
2019-02-10T04:58:40.889Z,92.08
2019-02-10T05:01:09.188Z,92.15
2019-02-10T05:03:37.570Z,92.37
2019-02-10T05:06:05.956Z,92.54
2019-02-10T05:08:34.246Z,92.58
2019-02-10T05:11:02.553Z,92.70
2019-02-10T05:13:30.884Z,92.86
2019-02-10T05:15:59.182Z,92.89
2019-02-10T05:18:27.474Z,92.91
2019-02-10T05:20:55.764Z,92.90
2019-02-10T05:23:24.081Z,93.12
2019-02-10T05:25:52.368Z,93.21
2019-02-10T05:28:20.682Z,93.28
2019-02-10T05:30:48.974Z,93.36
2019-02-10T05:33:17.593Z,93.36
2019-02-10T05:35:45.883Z,93.51
2019-02-10T05:38:14.538Z,93.51
2019-02-10T05:40:42.819Z,93.70
2019-02-10T05:43:11.161Z,93.74
2019-02-10T05:45:39.448Z,93.84
2019-02-10T05:48:07.730Z,93.87
2019-02-10T05:50:36.036Z,93.63
2019-02-10T05:53:04.380Z,93.87
2019-02-10T05:55:32.998Z,94.13
2019-02-10T05:58:01.280Z,94.13
2019-02-10T06:00:30.155Z,94.29
2019-02-10T06:02:58.453Z,94.20
2019-02-10T06:05:26.758Z,94.27
2019-02-10T06:07:55.092Z,94.29
2019-02-10T06:10:23.382Z,94.34
2019-02-10T06:12:51.696Z,94.48
2019-02-10T06:15:20.232Z,94.36
2019-02-10T06:17:48.552Z,94.53
2019-02-10T06:20:16.844Z,94.47
2019-02-10T06:22:45.462Z,94.57
2019-02-10T06:25:13.752Z,94.59
2019-02-10T06:27:42.035Z,94.70
2019-02-10T06:30:10.924Z,94.73
2019-02-10T06:32:39.197Z,94.77
2019-02-10T06:35:08.946Z,94.81
2019-02-10T06:37:37.250Z,94.82
2019-02-10T06:40:07.618Z,94.87
2019-02-10T06:42:35.977Z,94.96
2019-02-10T06:45:06.614Z,95.08
2019-02-10T06:47:34.905Z,95.06
2019-02-10T06:50:03.588Z,95.13
2019-02-10T06:52:32.226Z,95.13
2019-02-10T06:55:00.530Z,95.28
2019-02-10T06:57:28.828Z,95.39
2019-02-10T06:59:58.776Z,95.55
2019-02-10T07:02:34.397Z,95.65
2019-02-10T07:05:02.858Z,95.64
2019-02-10T07:07:31.152Z,95.72
2019-02-10T07:09:59.702Z,95.82
2019-02-10T07:12:48.627Z,95.90
2019-02-10T07:15:53.678Z,95.94
2019-02-10T07:18:58.396Z,95.94
2019-02-10T07:21:30.087Z,95.93
2019-02-10T07:24:04.571Z,96.02
2019-02-10T07:26:38.346Z,95.99
2019-02-10T07:29:09.851Z,96.04
2019-02-10T07:31:38.141Z,96.05
2019-02-10T07:34:12.527Z,96.25
2019-02-10T07:37:03.499Z,96.20
2019-02-10T07:39:40.732Z,96.29
2019-02-10T07:42:34.570Z,96.11
2019-02-10T07:45:24.332Z,96.26
2019-02-10T07:47:58.564Z,96.26
2019-02-10T07:50:47.078Z,96.24
2019-02-10T07:53:21.241Z,96.20
2019-02-10T07:56:20.926Z,96.23
2019-02-10T07:59:12.016Z,96.27
2019-02-10T08:02:01.694Z,96.26
2019-02-10T08:04:38.734Z,96.31
2019-02-10T08:07:19.096Z,96.28
2019-02-10T08:09:53.325Z,96.20
2019-02-10T08:12:25.149Z,96.22
2019-02-10T08:14:59.565Z,96.29
2019-02-10T08:17:45.995Z,96.19
2019-02-10T08:20:32.869Z,96.13
2019-02-10T08:23:20.719Z,96.02
2019-02-10T08:25:57.662Z,96.17
2019-02-10T08:28:41.052Z,96.15
2019-02-10T08:31:32.236Z,96.14
2019-02-10T08:34:06.583Z,96.15
2019-02-10T08:36:54.889Z,96.09
2019-02-10T08:39:35.438Z,96.03
2019-02-10T08:42:21.883Z,95.90
2019-02-10T08:44:53.367Z,95.84
2019-02-10T08:47:43.370Z,95.93
2019-02-10T08:50:31.518Z,95.76
2019-02-10T08:53:11.771Z,95.50
2019-02-10T08:55:40.363Z,95.46
2019-02-10T08:58:08.689Z,95.39
2019-02-10T09:00:36.971Z,95.25
2019-02-10T09:03:05.283Z,95.15
2019-02-10T09:05:33.574Z,95.16
2019-02-10T09:08:01.866Z,95.20
2019-02-10T09:10:30.176Z,94.92
2019-02-10T09:12:58.464Z,95.04
2019-02-10T09:15:27.095Z,94.71
2019-02-10T09:17:55.392Z,94.45
2019-02-10T09:20:23.702Z,94.15
2019-02-10T09:22:52.012Z,94.20
2019-02-10T09:25:20.301Z,94.15
2019-02-10T09:27:48.597Z,94.00
2019-02-10T09:30:16.913Z,93.57
2019-02-10T09:32:45.237Z,93.44
2019-02-10T09:35:13.902Z,93.38
2019-02-10T09:37:42.192Z,93.46
2019-02-10T09:40:12.141Z,93.47
2019-02-10T09:42:40.432Z,93.48
2019-02-10T09:45:13.147Z,93.08
2019-02-10T09:47:41.537Z,92.40
2019-02-10T09:50:15.145Z,92.38
2019-02-10T09:52:43.450Z,91.81
2019-02-10T09:55:11.813Z,91.91
2019-02-10T09:57:40.125Z,92.00
2019-02-10T10:00:13.595Z,91.75
2019-02-10T10:02:41.987Z,91.75
2019-02-10T10:05:12.308Z,91.72
2019-02-10T10:07:40.630Z,91.73
2019-02-10T10:10:11.427Z,91.82
2019-02-10T10:12:40.079Z,91.95
2019-02-10T10:15:11.023Z,92.35
2019-02-10T10:17:39.324Z,92.54
2019-02-10T10:20:11.345Z,92.92
2019-02-10T10:22:39.645Z,92.85
2019-02-10T10:25:09.308Z,93.09
2019-02-10T10:27:37.585Z,93.13
2019-02-10T10:30:09.068Z,93.30
2019-02-10T10:32:37.364Z,93.54
2019-02-10T10:35:07.004Z,93.63
2019-02-10T10:37:35.292Z,93.55
2019-02-10T10:40:04.582Z,93.59
2019-02-10T10:42:32.876Z,93.93
2019-02-10T10:45:01.153Z,93.94
2019-02-10T10:47:29.543Z,94.03
2019-02-10T10:49:57.847Z,94.19
2019-02-10T10:52:26.498Z,94.65
2019-02-10T10:54:55.116Z,94.77
2019-02-10T10:57:25.216Z,94.91
2019-02-10T10:59:53.703Z,95.27
2019-02-10T11:02:22.296Z,95.39
2019-02-10T11:04:50.580Z,95.33
2019-02-10T11:07:18.887Z,95.50
2019-02-10T11:09:47.165Z,95.83
2019-02-10T11:12:15.480Z,95.76
2019-02-10T11:14:43.789Z,95.70
2019-02-10T11:17:12.152Z,95.43
2019-02-10T11:19:40.460Z,95.60
2019-02-10T11:22:08.741Z,95.69
2019-02-10T11:24:37.048Z,95.76
2019-02-10T11:27:05.369Z,95.76
2019-02-10T11:29:33.940Z,95.75
2019-02-10T11:32:02.624Z,95.15
2019-02-10T11:34:30.922Z,95.21
2019-02-10T11:36:59.204Z,95.30
2019-02-10T11:39:27.510Z,95.26
2019-02-10T11:41:55.812Z,95.23
2019-02-10T11:44:24.151Z,95.23
2019-02-10T11:46:52.794Z,95.21
2019-02-10T11:49:21.089Z,95.31
2019-02-10T11:51:49.403Z,95.46
2019-02-10T11:54:17.704Z,95.31
2019-02-10T11:56:46.007Z,94.93
2019-02-10T11:59:14.320Z,94.68
2019-02-10T12:01:42.624Z,94.48
2019-02-10T12:04:11.245Z,94.14
2019-02-10T12:06:39.557Z,93.93
2019-02-10T12:09:07.919Z,93.64
2019-02-10T12:11:36.301Z,92.49
2019-02-10T12:14:04.790Z,92.34
2019-02-10T12:16:33.441Z,92.49
2019-02-10T12:19:02.016Z,92.03
2019-02-10T12:21:30.328Z,92.59
2019-02-10T12:23:58.627Z,92.58
2019-02-10T12:26:27.272Z,92.66
2019-02-10T12:28:55.659Z,92.78
2019-02-10T12:31:23.940Z,92.56
2019-02-10T12:33:52.250Z,92.04
2019-02-10T12:36:20.533Z,92.27
2019-02-10T12:38:48.840Z,92.37
2019-02-10T12:41:17.117Z,92.55
2019-02-10T12:43:45.819Z,92.70
2019-02-10T12:46:14.385Z,92.60
2019-02-10T12:48:42.684Z,91.88
2019-02-10T12:51:11.179Z,92.15
2019-02-10T12:53:39.497Z,92.35
2019-02-10T12:56:07.794Z,92.56
2019-02-10T12:58:36.502Z,93.29
2019-02-10T13:01:04.858Z,92.26
2019-02-10T13:03:33.160Z,92.50
2019-02-10T13:06:01.717Z,92.76
2019-02-10T13:08:30.311Z,92.83
2019-02-10T13:10:58.904Z,92.81
2019-02-10T13:13:27.216Z,92.04
2019-02-10T13:15:55.642Z,91.61
2019-02-10T13:18:23.878Z,91.78
2019-02-10T13:20:52.173Z,91.69
2019-02-10T13:23:20.478Z,91.88
2019-02-10T13:25:50.438Z,91.85
2019-02-10T13:28:18.873Z,91.47
2019-02-10T13:30:47.164Z,91.85
2019-02-10T13:33:15.484Z,92.09
2019-02-10T13:35:43.766Z,91.83
2019-02-10T13:38:12.075Z,91.76
2019-02-10T13:40:40.379Z,91.68
2019-02-10T13:43:08.779Z,92.01
2019-02-10T13:45:37.067Z,91.27
2019-02-10T13:48:05.627Z,90.67
2019-02-10T13:50:33.908Z,90.45
2019-02-10T13:53:02.222Z,90.79
2019-02-10T13:55:30.522Z,89.86
2019-02-10T13:57:58.801Z,90.33
2019-02-10T14:00:27.123Z,90.24
2019-02-10T14:02:55.416Z,89.99
2019-02-10T14:05:24.037Z,88.98
2019-02-10T14:07:52.642Z,88.85
2019-02-10T14:10:25.696Z,89.27
2019-02-10T14:12:51.079Z,89.74
2019-02-10T14:15:20.197Z,89.32
2019-02-10T14:17:48.512Z,88.56
2019-02-10T14:20:18.027Z,88.44
2019-02-10T14:22:46.690Z,88.14
2019-02-10T14:25:15.013Z,87.74
2019-02-10T14:27:43.506Z,87.14
2019-02-10T14:30:25.164Z,88.15
2019-02-10T14:32:53.528Z,88.21
2019-02-10T14:35:22.204Z,88.11
2019-02-10T14:37:50.518Z,88.33
2019-02-10T14:40:19.174Z,88.25
2019-02-10T14:42:47.483Z,88.45
2019-02-10T14:45:16.360Z,88.71
2019-02-10T14:47:44.642Z,88.86
2019-02-10T14:50:17.420Z,88.83
2019-02-10T14:52:45.710Z,88.65
2019-02-10T14:55:14.195Z,88.53
2019-02-10T14:57:42.612Z,88.49
2019-02-10T15:00:13.546Z,88.80
2019-02-10T15:02:41.831Z,88.81
2019-02-10T15:05:10.157Z,88.74
2019-02-10T15:07:38.451Z,88.71
2019-02-10T15:10:18.821Z,88.76
2019-02-10T15:12:47.170Z,88.93
2019-02-10T15:15:15.483Z,88.92
2019-02-10T15:17:43.773Z,89.03
2019-02-10T15:20:13.386Z,89.01
2019-02-10T15:22:41.712Z,88.07
2019-02-10T15:25:11.645Z,88.51
2019-02-10T15:27:40.263Z,88.46
2019-02-10T15:30:16.776Z,88.18
2019-02-10T15:32:45.073Z,88.24
2019-02-10T15:35:13.510Z,88.48
2019-02-10T15:37:41.915Z,88.91
2019-02-10T15:40:13.954Z,89.40
2019-02-10T15:42:42.368Z,89.89
2019-02-10T15:45:12.401Z,90.59
2019-02-10T15:47:41.066Z,90.77
2019-02-10T15:50:11.848Z,90.82
2019-02-10T15:52:40.449Z,90.38
2019-02-10T15:55:12.026Z,90.52
2019-02-10T15:57:40.335Z,90.23
2019-02-10T16:00:26.924Z,89.29
2019-02-10T16:02:55.232Z,89.89
2019-02-10T16:05:23.526Z,89.85
2019-02-10T16:07:51.836Z,89.94
2019-02-10T16:10:20.133Z,89.21
2019-02-10T16:12:48.491Z,89.57
2019-02-10T16:15:16.791Z,89.30
2019-02-10T16:17:45.085Z,89.04
2019-02-10T16:20:14.940Z,89.54
2019-02-10T16:22:43.512Z,89.48
2019-02-10T16:25:11.890Z,89.76
2019-02-10T16:27:40.459Z,89.86
2019-02-10T16:30:11.766Z,89.85
2019-02-10T16:32:40.046Z,89.59
2019-02-10T16:35:09.007Z,89.88
2019-02-10T16:37:37.417Z,89.96
2019-02-10T16:40:08.884Z,89.43
2019-02-10T16:42:37.179Z,89.68
2019-02-10T16:45:09.062Z,89.67
2019-02-10T16:47:37.653Z,89.53
2019-02-10T16:50:08.985Z,89.59
2019-02-10T16:52:39.400Z,89.46
2019-02-10T16:55:10.579Z,89.52
2019-02-10T16:57:39.246Z,88.76
2019-02-10T17:00:13.228Z,88.78
2019-02-10T17:02:41.546Z,89.32
2019-02-10T17:05:10.062Z,89.24
2019-02-10T17:07:38.371Z,89.67
2019-02-10T17:10:14.992Z,89.83
2019-02-10T17:12:43.300Z,90.11
2019-02-10T17:15:12.634Z,90.36
2019-02-10T17:17:40.919Z,88.56
2019-02-10T17:20:12.198Z,88.71
2019-02-10T17:22:40.819Z,87.32
2019-02-10T17:25:14.880Z,87.25
2019-02-10T17:27:43.184Z,88.06
2019-02-10T17:30:13.920Z,87.04
2019-02-10T17:32:42.222Z,86.93
2019-02-10T17:35:12.450Z,87.46
2019-02-10T17:37:40.986Z,87.82
2019-02-10T17:40:30.541Z,88.08
2019-02-10T17:42:58.849Z,88.06
2019-02-10T17:45:27.794Z,89.05
2019-02-10T17:47:56.085Z,88.90
2019-02-10T17:50:24.383Z,89.46
2019-02-10T17:52:52.721Z,89.90
2019-02-10T17:55:21.143Z,89.97
2019-02-10T17:57:49.434Z,90.47
2019-02-10T18:00:19.767Z,90.60
2019-02-10T18:02:48.397Z,89.93
2019-02-10T18:05:16.685Z,90.40
2019-02-10T18:07:44.985Z,89.50
2019-02-10T18:10:16.954Z,90.64
2019-02-10T18:12:45.350Z,90.71
2019-02-10T18:15:15.344Z,90.40
2019-02-10T18:17:48.075Z,90.19
2019-02-10T18:20:24.030Z,91.03
2019-02-10T18:22:59.506Z,90.89
2019-02-10T18:25:35.718Z,90.53
2019-02-10T18:28:23.808Z,90.73
2019-02-10T18:30:53.733Z,90.42
2019-02-10T18:33:32.340Z,90.02
2019-02-10T18:36:14.724Z,90.62
2019-02-10T18:38:44.759Z,90.08
2019-02-10T18:41:29.631Z,91.12
2019-02-10T18:44:08.149Z,90.35
2019-02-10T18:46:49.996Z,91.16
2019-02-10T18:49:29.035Z,91.59
2019-02-10T18:52:05.210Z,92.11
2019-02-10T18:54:41.119Z,91.96
2019-02-10T18:57:11.051Z,91.25
2019-02-10T18:59:43.970Z,91.71
2019-02-10T19:02:29.565Z,92.19
2019-02-10T19:05:08.558Z,92.41
2019-02-10T19:07:44.054Z,92.34
2019-02-10T19:10:20.798Z,92.62
2019-02-10T19:13:07.069Z,92.87
2019-02-10T19:15:39.964Z,92.79
2019-02-10T19:18:09.901Z,92.54
2019-02-10T19:20:39.986Z,92.58
2019-02-10T19:23:12.897Z,92.45
2019-02-10T19:25:42.948Z,91.88
2019-02-10T19:28:18.806Z,91.64
2019-02-10T19:30:48.758Z,91.30
2019-02-10T19:33:18.692Z,92.07
2019-02-10T19:36:07.235Z,91.59
2019-02-10T19:38:40.437Z,92.31
2019-02-10T19:41:12.812Z,92.50
2019-02-10T19:43:55.586Z,92.21
2019-02-10T19:46:38.142Z,92.34
2019-02-10T19:49:18.528Z,92.60
2019-02-10T19:51:48.938Z,92.56
2019-02-10T19:54:23.813Z,91.95
2019-02-10T19:57:12.229Z,92.48
2019-02-10T19:59:45.892Z,92.48
2019-02-10T20:02:20.722Z,92.45
2019-02-10T20:04:52.017Z,92.30
2019-02-10T20:07:33.644Z,92.55
2019-02-10T20:10:04.783Z,92.12
2019-02-10T20:12:39.560Z,92.40
2019-02-10T20:15:13.409Z,92.40
2019-02-10T20:17:44.464Z,91.73
2019-02-10T20:20:34.604Z,91.97
2019-02-10T20:23:21.650Z,92.06
2019-02-10T20:25:58.264Z,92.64
2019-02-10T20:28:41.563Z,92.70
2019-02-10T20:31:11.511Z,92.81
2019-02-10T20:33:43.883Z,93.05
2019-02-10T20:36:14.425Z,92.92
2019-02-10T20:38:51.015Z,92.91
2019-02-10T20:41:22.444Z,92.99
2019-02-10T20:44:04.814Z,92.82
2019-02-10T20:46:37.671Z,92.89
2019-02-10T20:49:25.513Z,92.61
2019-02-10T20:52:04.135Z,92.49
2019-02-10T20:54:43.029Z,92.39
2019-02-10T20:57:29.229Z,93.03
2019-02-10T21:00:07.767Z,93.46
2019-02-10T21:02:40.174Z,92.47
2019-02-10T21:05:26.715Z,92.65
2019-02-10T21:07:59.869Z,93.03
2019-02-10T21:10:41.644Z,93.07
2019-02-10T21:13:14.009Z,93.06
2019-02-10T21:15:49.621Z,92.74
2019-02-10T21:18:22.383Z,92.52
2019-02-10T21:21:01.584Z,93.16
2019-02-10T21:23:31.844Z,93.36
2019-02-10T21:26:01.792Z,93.19
2019-02-10T21:28:31.860Z,93.06
2019-02-10T21:31:17.704Z,93.68
2019-02-10T21:33:53.722Z,93.85
2019-02-10T21:36:39.896Z,93.64
2019-02-10T21:39:12.425Z,93.33
2019-02-10T21:41:42.719Z,93.70
2019-02-10T21:44:21.941Z,93.87
2019-02-10T21:46:54.546Z,93.82
2019-02-10T21:49:22.895Z,93.84
2019-02-10T21:51:51.224Z,93.87
2019-02-10T21:54:19.587Z,93.61
2019-02-10T21:56:48.247Z,93.86
2019-02-10T21:59:16.833Z,93.87
2019-02-10T22:01:45.138Z,93.95
2019-02-10T22:04:13.455Z,93.91
2019-02-10T22:06:41.816Z,94.05
2019-02-10T22:09:10.082Z,94.20
2019-02-10T22:11:38.614Z,94.03
2019-02-10T22:14:06.922Z,94.19
2019-02-10T22:16:35.305Z,94.26
2019-02-10T22:19:03.608Z,93.96
2019-02-10T22:21:31.888Z,93.85
2019-02-10T22:24:00.221Z,94.01
2019-02-10T22:26:28.499Z,93.82
2019-02-10T22:28:56.807Z,93.37
2019-02-10T22:31:25.082Z,93.79
2019-02-10T22:33:53.390Z,93.92
2019-02-10T22:36:21.693Z,94.10
2019-02-10T22:38:50.286Z,93.75
2019-02-10T22:41:18.591Z,93.99
2019-02-10T22:43:46.898Z,93.81
2019-02-10T22:46:15.195Z,93.88
2019-02-10T22:48:43.470Z,93.81
2019-02-10T22:51:11.775Z,93.83
2019-02-10T22:53:40.342Z,92.99
2019-02-10T22:56:08.655Z,92.47
2019-02-10T22:58:36.948Z,93.01
2019-02-10T23:01:05.976Z,93.13
2019-02-10T23:03:34.256Z,93.52
2019-02-10T23:06:02.604Z,93.46
2019-02-10T23:08:30.899Z,93.66
2019-02-10T23:10:59.195Z,93.40
2019-02-10T23:13:27.521Z,93.22
2019-02-10T23:15:55.809Z,93.57
2019-02-10T23:18:24.128Z,93.47
2019-02-10T23:20:52.421Z,93.45
2019-02-10T23:23:21.086Z,93.79
2019-02-10T23:25:49.675Z,93.71
2019-02-10T23:28:18.236Z,93.74
2019-02-10T23:30:46.561Z,93.22
2019-02-10T23:33:14.861Z,93.94
2019-02-10T23:35:43.514Z,93.94
2019-02-10T23:38:12.079Z,94.09
2019-02-10T23:40:40.359Z,93.93
2019-02-10T23:43:08.650Z,93.92
2019-02-10T23:45:36.953Z,94.26
2019-02-10T23:48:05.231Z,94.31
2019-02-10T23:50:33.535Z,94.33
2019-02-10T23:53:01.812Z,94.07
2019-02-10T23:55:30.121Z,94.22
2019-02-10T23:57:58.427Z,94.47
